Time;durP1;ratioP1;P1;durP2;ratioP2;P2;SDS_P1;SDS_P2;PMS_P1;PMS_P2;Temp;Humidity;BMP_temperature;BMP_pressure;BME280_temperature;BME280_humidity;BME280_pressure;Samples;Min_cycle;Max_cycle;Signal;HPM_P1;HPM_P2
2023/11/01 00:03:06;;;;;;;4.80;2.10;;;;;;;8.97;100.00;99459.20;215298;1290;138610;-90
2023/11/01 00:08:07;;;;;;;4.70;2.20;;;;;;;8.92;100.00;99473.37;214663;1290;142126;-91
2023/11/01 00:13:08;;;;;;;3.60;1.70;;;;;;;8.87;100.00;99483.86;215111;1290;137834;-91
2023/11/01 00:18:08;;;;;;;4.00;1.80;;;;;;;8.81;100.00;99494.73;214605;1291;141424;-89
2023/11/01 00:23:09;;;;;;;4.60;2.20;;;;;;;8.76;100.00;99506.16;215216;1291;138936;-87
2023/11/01 00:28:09;;;;;;;2.60;1.70;;;;;;;8.70;100.00;99508.27;214773;1292;140117;-88
2023/11/01 00:33:10;;;;;;;3.20;1.60;;;;;;;8.64;100.00;99517.32;215047;1291;139546;-86
2023/11/01 00:38:10;;;;;;;4.30;1.70;;;;;;;8.57;100.00;99524.81;214758;1288;140287;-87
2023/11/01 00:43:11;;;;;;;5.70;2.40;;;;;;;8.50;100.00;99529.41;215217;1288;138779;-88
2023/11/01 00:48:11;;;;;;;5.50;2.50;;;;;;;8.42;100.00;99534.21;214933;1293;140780;-88
2023/11/01 00:53:12;;;;;;;4.60;2.30;;;;;;;8.37;100.00;99544.06;215487;1289;138872;-88
2023/11/01 00:58:13;;;;;;;3.80;1.70;;;;;;;8.28;100.00;99551.14;214570;1289;139751;-87
2023/11/01 01:03:14;;;;;;;3.90;1.60;;;;;;;8.20;100.00;99558.13;215037;1291;138790;-90
2023/11/01 01:08:14;;;;;;;4.90;1.30;;;;;;;8.13;100.00;99570.75;214761;1292;139927;-88
2023/11/01 01:13:14;;;;;;;2.30;1.30;;;;;;;8.04;100.00;99576.00;215199;1289;138376;-87
2023/11/01 01:18:17;;;;;;;2.70;1.30;;;;;;;7.98;100.00;99580.81;214606;1291;140677;-87
2023/11/01 01:23:17;;;;;;;5.30;1.50;;;;;;;7.88;100.00;99577.04;215300;1290;138643;-88
2023/11/01 01:28:18;;;;;;;3.50;1.40;;;;;;;7.80;100.00;99572.29;214829;1289;140268;-86
2023/11/01 01:33:18;;;;;;;5.60;1.10;;;;;;;7.71;100.00;99569.15;215296;1291;138791;-87
2023/11/01 01:38:19;;;;;;;1.90;0.90;;;;;;;7.61;100.00;99566.19;214947;1292;140042;-87
2023/11/01 01:43:24;;;;;;;3.70;1.00;;;;;;;7.53;100.00;99562.05;214971;1291;139086;-89
2023/11/01 01:48:25;;;;;;;2.90;1.00;;;;;;;7.46;100.00;99588.95;214597;1289;140409;-89
2023/11/01 01:53:26;;;;;;;3.10;1.00;;;;;;;7.38;100.00;99595.98;215092;1289;139281;-87
2023/11/01 01:58:27;;;;;;;2.40;1.00;;;;;;;7.29;100.00;99601.22;214601;1289;140501;-87
2023/11/01 02:03:28;;;;;;;4.20;1.00;;;;;;;7.18;100.00;99600.86;215148;1290;139577;-87
2023/11/01 02:08:30;;;;;;;2.70;0.60;;;;;;;7.08;100.00;99600.98;214667;1294;140081;-86
2023/11/01 02:13:31;;;;;;;2.40;0.70;;;;;;;7.00;100.00;99617.45;215332;1290;138294;-86
2023/11/01 02:18:32;;;;;;;5.00;1.10;;;;;;;6.91;100.00;99622.11;214641;1288;140241;-86
2023/11/01 02:23:34;;;;;;;2.50;0.80;;;;;;;6.82;100.00;99626.29;215323;1288;138605;-87
2023/11/01 02:28:35;;;;;;;8.00;1.00;;;;;;;6.72;100.00;99632.17;214679;1293;139607;-87
2023/11/01 02:33:35;;;;;;;2.20;0.90;;;;;;;6.67;100.00;99633.81;215400;1291;138561;-87
2023/11/01 02:38:35;;;;;;;3.50;0.80;;;;;;;6.58;100.00;99637.75;214780;1292;140021;-86
2023/11/01 02:43:36;;;;;;;3.90;1.20;;;;;;;6.48;100.00;99644.80;215340;1288;98028;-87
2023/11/01 02:48:36;;;;;;;5.40;1.20;;;;;;;6.40;100.00;99649.11;214755;1290;140514;-87
2023/11/01 02:53:37;;;;;;;2.70;1.10;;;;;;;6.33;100.00;99644.95;217527;1290;139097;-87
2023/11/01 02:58:37;;;;;;;3.20;0.90;;;;;;;6.27;100.00;99647.60;217272;1290;140698;-87
2023/11/01 03:03:38;;;;;;;3.00;1.20;;;;;;;6.21;100.00;99652.81;215275;1290;138634;-87
2023/11/01 03:08:39;;;;;;;6.10;1.30;;;;;;;6.17;100.00;99655.02;214788;1289;141343;-86
2023/11/01 03:13:39;;;;;;;5.20;1.10;;;;;;;6.13;100.00;99664.86;215341;1290;98004;-87
2023/11/01 03:18:39;;;;;;;2.00;0.90;;;;;;;6.10;100.00;99674.33;214733;1292;139953;-86
2023/11/01 03:23:40;;;;;;;4.00;1.40;;;;;;;6.10;100.00;99679.95;215231;1288;139153;-86
2023/11/01 03:28:40;;;;;;;4.90;1.20;;;;;;;6.11;100.00;99687.46;214615;1288;140908;-86
2023/11/01 03:33:41;;;;;;;2.10;0.90;;;;;;;6.11;100.00;99689.47;215319;1291;138505;-85
2023/11/01 03:38:41;;;;;;;4.20;0.90;;;;;;;6.07;100.00;99706.83;214849;1290;139932;-86
2023/11/01 03:43:43;;;;;;;1.40;0.90;;;;;;;6.01;100.00;99702.58;215344;1292;98064;-87
2023/11/01 03:48:43;;;;;;;2.60;1.00;;;;;;;5.98;100.00;99711.33;214394;1290;140273;-87
2023/11/01 03:53:44;;;;;;;2.40;0.70;;;;;;;5.91;100.00;99717.53;215129;1290;139254;-86
2023/11/01 03:58:44;;;;;;;0.90;0.70;;;;;;;5.86;100.00;99723.52;216053;1290;140283;-86
2023/11/01 04:03:46;;;;;;;2.30;0.90;;;;;;;5.82;100.00;99725.09;215310;1289;140403;-85
2023/11/01 04:08:47;;;;;;;2.70;1.00;;;;;;;5.77;100.00;99729.50;214770;1291;140153;-86
2023/11/01 04:13:49;;;;;;;3.60;0.90;;;;;;;5.75;100.00;99737.80;215471;1288;97928;-85
2023/11/01 04:18:50;;;;;;;2.80;0.70;;;;;;;5.70;100.00;99742.78;214799;1293;142697;-85
2023/11/01 04:23:52;;;;;;;2.80;1.20;;;;;;;5.70;100.00;99748.63;215471;1289;138748;-86
2023/11/01 04:28:52;;;;;;;3.00;0.90;;;;;;;5.68;100.00;99750.06;214799;1290;141942;-86
2023/11/01 04:33:53;;;;;;;3.50;0.90;;;;;;;5.67;100.00;99744.90;215916;1289;139054;-86
2023/11/01 04:38:54;;;;;;;3.30;0.90;;;;;;;5.70;100.00;99745.20;217650;1289;139819;-86
2023/11/01 04:43:55;;;;;;;4.80;1.00;;;;;;;5.75;100.00;99744.67;218234;1289;107628;-86
2023/11/01 04:48:55;;;;;;;4.10;0.70;;;;;;;5.81;100.00;99747.92;217709;1289;140421;-85
2023/11/01 04:53:56;;;;;;;3.30;1.10;;;;;;;5.87;100.00;99757.48;218052;1288;139239;-86
2023/11/01 04:58:56;;;;;;;2.80;1.00;;;;;;;5.93;100.00;99764.61;217712;1288;140160;-86
2023/11/01 05:03:57;;;;;;;6.50;1.40;;;;;;;5.99;100.00;99767.45;218065;1289;139001;-86
2023/11/01 05:08:57;;;;;;;2.10;0.80;;;;;;;6.03;100.00;99774.48;217759;1288;139814;-86
2023/11/01 05:13:57;;;;;;;4.80;1.30;;;;;;;6.08;100.00;99778.39;218350;1288;96086;-86
2023/11/01 05:18:58;;;;;;;3.40;1.00;;;;;;;6.13;100.00;99778.65;217677;1291;139996;-86
2023/11/01 05:23:58;;;;;;;2.30;1.00;;;;;;;6.15;100.00;99779.46;218134;1289;139765;-86
2023/11/01 05:28:59;;;;;;;1.80;1.00;;;;;;;6.19;100.00;99790.17;217661;1288;141969;-86
2023/11/01 05:34:00;;;;;;;2.60;1.00;;;;;;;6.22;100.00;99787.78;216438;1289;140201;-85
2023/11/01 05:39:05;;;;;;;2.10;1.00;;;;;;;6.21;100.00;99797.39;214580;1290;140728;-86
2023/11/01 05:44:05;;;;;;;2.40;1.10;;;;;;;6.19;100.00;99804.98;215347;1291;97894;-86
2023/11/01 05:49:08;;;;;;;2.40;0.90;;;;;;;6.17;100.00;99812.67;214750;1292;139320;-85
2023/11/01 05:54:08;;;;;;;1.60;1.00;;;;;;;6.17;100.00;99821.11;215304;1290;138466;-85
2023/11/01 05:59:12;;;;;;;4.80;1.20;;;;;;;6.16;100.00;99827.80;214723;1291;140713;-85
2023/11/01 06:04:12;;;;;;;8.00;1.40;;;;;;;6.15;100.00;99833.23;215303;1289;138651;-85
2023/11/01 06:09:16;;;;;;;3.50;1.00;;;;;;;6.13;100.00;99837.96;214760;1292;139934;-85
2023/11/01 06:14:20;;;;;;;3.30;1.10;;;;;;;6.12;100.00;99839.43;215322;1288;106210;-85
2023/11/01 06:19:21;;;;;;;2.60;1.20;;;;;;;6.12;100.00;99850.20;214660;1289;141850;-85
2023/11/01 06:24:22;;;;;;;2.90;1.40;;;;;;;6.14;100.00;99855.46;215136;1290;139087;-84
2023/11/01 06:29:22;;;;;;;3.50;1.30;;;;;;;6.17;100.00;99863.27;214601;1291;140114;-85
2023/11/01 06:34:22;;;;;;;5.60;1.20;;;;;;;6.19;100.00;99865.18;215275;1291;138901;-86
2023/11/01 06:39:23;;;;;;;5.20;1.70;;;;;;;6.23;100.00;99872.81;214742;1291;140838;-85
2023/11/01 06:44:25;;;;;;;6.30;1.60;;;;;;;6.26;100.00;99881.23;215444;1291;97976;-85
2023/11/01 06:49:25;;;;;;;7.10;1.40;;;;;;;6.31;100.00;99880.16;214668;1288;178258;-85
2023/11/01 06:54:28;;;;;;;4.30;1.70;;;;;;;6.36;100.00;99883.54;215146;1290;138556;-85
2023/11/01 06:59:28;;;;;;;2.50;1.20;;;;;;;6.42;100.00;99878.80;214752;1291;139956;-85
2023/11/01 07:04:29;;;;;;;5.30;1.50;;;;;;;6.48;100.00;99882.44;215134;1288;138607;-85
2023/11/01 07:09:29;;;;;;;4.70;1.50;;;;;;;6.55;100.00;99875.85;214664;1290;140474;-85
2023/11/01 07:14:30;;;;;;;4.30;1.00;;;;;;;6.63;100.00;99879.20;215436;1291;97874;-85
2023/11/01 07:19:30;;;;;;;3.40;1.10;;;;;;;6.70;100.00;99883.94;214687;1288;141744;-85
2023/11/01 07:24:31;;;;;;;2.10;1.00;;;;;;;6.76;100.00;99884.90;215086;1290;138351;-86
2023/11/01 07:29:31;;;;;;;2.70;1.20;;;;;;;6.86;100.00;99886.01;214552;1291;140022;-85
2023/11/01 07:34:32;;;;;;;6.30;1.60;;;;;;;6.97;100.00;99889.23;215162;1289;139818;-85
2023/11/01 07:39:32;;;;;;;10.40;4.50;;;;;;;7.08;100.00;99886.13;214563;1290;139973;-85
2023/11/01 07:44:33;;;;;;;7.60;2.20;;;;;;;7.13;100.00;99887.80;215259;1291;105727;-86
2023/11/01 07:49:33;;;;;;;6.60;1.80;;;;;;;7.19;100.00;99889.91;214721;1288;142119;-85
2023/11/01 07:54:34;;;;;;;6.60;1.80;;;;;;;7.20;100.00;99889.84;215273;1291;138457;-85
2023/11/01 07:59:34;;;;;;;5.00;1.30;;;;;;;7.21;100.00;99886.59;214756;1291;139596;-85
2023/11/01 08:04:35;;;;;;;4.10;1.20;;;;;;;7.27;100.00;99878.85;215107;1290;138573;-85
2023/11/01 08:09:35;;;;;;;6.10;1.20;;;;;;;7.33;100.00;99878.09;214637;1291;140703;-86
2023/11/01 08:14:36;;;;;;;3.60;0.90;;;;;;;7.38;100.00;99872.92;215204;1289;139580;-85
2023/11/01 08:19:38;;;;;;;6.30;1.30;;;;;;;7.45;100.00;99875.30;214886;1291;141128;-84
2023/11/01 08:24:40;;;;;;;7.10;1.50;;;;;;;7.52;100.00;99871.41;215023;1294;138901;-85
2023/11/01 08:29:43;;;;;;;4.60;1.90;;;;;;;7.60;100.00;99873.55;214608;1291;140481;-85
2023/11/01 08:34:44;;;;;;;3.60;1.40;;;;;;;7.72;100.00;99873.87;217891;1288;138677;-86
2023/11/01 08:39:44;;;;;;;5.60;1.80;;;;;;;7.81;100.00;99875.64;217420;1288;139699;-85
2023/11/01 08:44:45;;;;;;;4.60;1.70;;;;;;;7.92;100.00;99885.25;218114;1289;138796;-85
2023/11/01 08:49:45;;;;;;;7.00;2.10;;;;;;;8.03;100.00;99877.65;217629;1288;140537;-86
2023/11/01 08:54:47;;;;;;;6.30;2.10;;;;;;;8.17;100.00;99887.77;218065;1288;139370;-85
2023/11/01 08:59:50;;;;;;;5.40;1.80;;;;;;;8.26;100.00;99894.40;217626;1290;140284;-86
2023/11/01 09:04:50;;;;;;;8.40;2.20;;;;;;;8.34;100.00;99901.14;218013;1291;139103;-85
2023/11/01 12:16:54;;;;;;;17.40;4.30;;;;;;;11.01;100.00;99811.02;224509;1262;139007;-86
2023/11/01 12:21:59;;;;;;;11.20;4.10;;;;;;;11.07;100.00;99803.08;222221;1265;140007;-84
2023/11/01 12:27:04;;;;;;;9.20;3.30;;;;;;;11.16;100.00;99794.25;220709;1265;142332;-85
2023/11/01 12:32:08;;;;;;;7.80;3.10;;;;;;;11.25;100.00;99792.98;220979;1264;139845;-87
2023/11/01 12:37:13;;;;;;;11.10;3.90;;;;;;;11.23;100.00;99791.87;220299;1268;139309;-86
2023/11/01 12:42:21;;;;;;;13.90;3.70;;;;;;;11.29;100.00;99798.64;221025;1268;138260;-86
2023/11/01 12:47:24;;;;;;;7.10;3.30;;;;;;;11.38;100.00;99793.73;220389;1266;140367;-85
2023/11/01 12:52:25;;;;;;;9.00;3.40;;;;;;;11.46;100.00;99781.13;221397;1264;138457;-85
2023/11/01 12:57:25;;;;;;;21.50;8.00;;;;;;;11.51;100.00;99783.70;221063;1264;139191;-87
2023/11/01 13:02:27;;;;;;;10.50;3.90;;;;;;;11.59;100.00;99785.44;221084;1264;138412;-84
2023/11/01 13:07:30;;;;;;;10.20;4.10;;;;;;;11.71;100.00;99788.48;220446;1263;139555;-85
2023/11/01 13:12:31;;;;;;;8.90;3.90;;;;;;;11.81;100.00;99783.48;220982;1262;139165;-86
2023/11/01 13:17:32;;;;;;;28.50;8.40;;;;;;;11.91;100.00;99777.20;220701;1263;139408;-88
2023/11/01 13:22:32;;;;;;;10.60;4.50;;;;;;;11.90;100.00;99776.88;221168;1265;139017;-87
2023/11/01 13:27:33;;;;;;;11.00;4.30;;;;;;;11.91;100.00;99776.02;220587;1267;139708;-86
2023/11/01 13:32:33;;;;;;;10.10;4.40;;;;;;;11.92;100.00;99773.89;221020;1263;139231;-85
2023/11/01 13:37:34;;;;;;;10.50;5.10;;;;;;;11.98;100.00;99777.40;220793;1263;139332;-85
2023/11/01 13:42:34;;;;;;;10.90;4.50;;;;;;;12.00;100.00;99770.94;221336;1263;139070;-85
2023/11/01 13:47:35;;;;;;;10.40;5.00;;;;;;;11.98;100.00;99772.13;220618;1264;139556;-86
2023/11/01 13:52:35;;;;;;;9.10;4.60;;;;;;;11.95;100.00;99767.81;221395;1263;139723;-85
2023/11/01 13:57:36;;;;;;;12.00;4.90;;;;;;;11.97;100.00;99762.67;220707;1263;141713;-84
2023/11/01 15:56:02;;;;;;;;;;;;;;;;;;;;;
2023/11/01 16:01:48;;;;;;;27.90;16.80;;;;;;;9.85;100.00;99667.11;223815;1263;140254;-95
2023/11/01 16:07:39;;;;;;;;;;;;;;;;;;;;;
2023/11/01 16:13:51;;;;;;;22.50;12.50;;;;;;;9.63;100.00;99657.25;224313;1262;138244;-88
2023/11/01 16:26:03;;;;;;;;;;;;;;;;;;;;;
2023/11/01 16:31:55;;;;;;;25.20;13.40;;;;;;;9.32;100.00;99649.93;223653;1262;139207;-89
2023/11/01 16:37:56;;;;;;;28.60;14.80;;;;;;;9.22;100.00;99648.34;224269;1262;138812;-89
2023/11/01 16:43:57;;;;;;;27.80;15.00;;;;;;;9.14;100.00;99646.58;224218;1262;136977;-90
2023/11/01 16:49:58;;;;;;;25.90;14.50;;;;;;;9.07;100.00;99646.95;223598;1262;138994;-89
2023/11/01 16:55:51;;;;;;;;;;;;;;;;;;;;;
2023/11/01 17:02:02;;;;;;;34.60;16.60;;;;;;;9.03;100.00;99645.73;223724;1263;139394;-89
2023/11/01 17:07:54;;;;;;;;;;;;;;;;;;;;;
2023/11/01 17:14:03;;;;;;;32.10;15.50;;;;;;;9.08;100.00;99641.54;224609;1263;138030;-90
2023/11/01 17:20:04;;;;;;;28.60;14.70;;;;;;;9.14;100.00;99637.95;224351;1267;138180;-89
2023/11/01 17:26:11;;;;;;;32.20;17.20;;;;;;;9.19;100.00;99637.34;224353;1264;137004;-92
2023/11/01 17:32:08;;;;;;;;;;;;;;;;;;;;;
2023/11/01 17:38:09;;;;;;;;;;;;;;;;;;;;;
2023/11/01 17:44:21;;;;;;;39.40;21.20;;;;;;;9.35;100.00;99625.55;224270;1263;138041;-89
2023/11/01 17:50:27;;;;;;;30.20;18.90;;;;;;;9.36;100.00;99621.95;223680;1263;139113;-89
2023/11/01 17:56:28;;;;;;;35.20;18.60;;;;;;;9.36;100.00;99618.02;224331;1263;138109;-90
2023/11/01 18:02:29;;;;;;;32.50;18.60;;;;;;;9.34;100.00;99613.46;223679;1263;140314;-90
2023/11/01 18:08:32;;;;;;;40.50;20.80;;;;;;;9.31;100.00;99610.16;223719;1262;139329;-91
2023/11/01 18:14:31;;;;;;;34.50;20.30;;;;;;;9.28;100.00;99604.27;224202;1263;138982;-89
2023/11/01 18:20:30;;;;;;;;;;;;;;;;;;;;;
2023/11/01 18:32:49;;;;;;;31.60;18.40;;;;;;;9.25;100.00;99595.56;223093;1263;139145;-90
2023/11/01 18:38:53;;;;;;;28.60;17.40;;;;;;;9.21;100.00;99591.39;223838;1263;139673;-89
2023/11/01 18:45:14;;;;;;;34.30;17.90;;;;;;;9.20;100.00;99588.48;224375;1263;138350;-90
2023/11/01 18:51:15;;;;;;;31.30;16.60;;;;;;;9.18;100.00;99593.66;222631;1271;139829;-89
2023/11/01 18:57:13;;;;;;;;;;;;;;;;;;;;;
2023/11/01 19:03:29;;;;;;;32.20;20.50;;;;;;;9.12;100.00;99585.88;224391;1262;138422;-90
2023/11/01 19:09:30;;;;;;;36.90;21.30;;;;;;;9.04;100.00;99588.66;224335;1263;138469;-89
2023/11/01 19:15:32;;;;;;;38.20;21.70;;;;;;;8.99;100.00;99585.59;224568;1263;138046;-88
2023/11/01 19:21:33;;;;;;;40.10;23.40;;;;;;;8.92;100.00;99584.06;223678;1263;139699;-90
2023/11/01 19:27:36;;;;;;;36.70;22.20;;;;;;;8.83;100.00;99579.48;224171;1263;138157;-88
2023/11/01 19:39:28;;;;;;;;;;;;;;;;;;;;;
2023/11/01 19:45:32;;;;;;;33.80;19.90;;;;;;;8.66;100.00;99575.80;224280;1263;138658;-89
2023/11/01 19:51:33;;;;;;;33.60;18.80;;;;;;;8.63;100.00;99575.39;223605;1263;139402;-89
2023/11/01 19:57:33;;;;;;;32.70;17.40;;;;;;;8.61;100.00;99569.50;224159;1263;138122;-90
2023/11/01 20:03:24;;;;;;;28.80;18.20;;;;;;;8.61;100.00;99566.59;224321;1263;138135;-90
2023/11/01 20:09:25;;;;;;;30.30;17.90;;;;;;;8.59;100.00;99558.52;223649;1263;139297;-90
2023/11/01 20:15:16;;;;;;;;;;;;;;;;;;;;;
2023/11/01 20:21:20;;;;;;;31.60;17.80;;;;;;;8.61;100.00;99549.37;223813;1264;139521;-89
2023/11/01 20:27:23;;;;;;;33.00;19.50;;;;;;;8.65;100.00;99543.98;224292;1266;138768;-94
2023/11/01 20:37:48;;;;;;;;;;;;;;;;;;;;;
2023/11/01 20:43:40;;;;;;;27.60;16.30;;;;;;;8.87;100.00;99534.66;224130;1263;138282;-82
2023/11/01 20:49:41;;;;;;;29.40;17.70;;;;;;;8.95;100.00;99530.14;223437;1264;139744;-82
2023/11/01 20:55:42;;;;;;;;;;;;;;;;;;;;;
2023/11/01 21:01:43;;;;;;;27.70;17.60;;;;;;;9.12;100.00;99517.16;223525;1264;139581;-83
2023/11/01 21:07:45;;;;;;;29.10;17.40;;;;;;;9.21;100.00;99509.98;224048;1264;138481;-83
2023/11/01 21:13:46;;;;;;;28.80;14.80;;;;;;;9.29;100.00;99501.04;224151;1264;138864;-83
2023/11/01 21:19:30;;;;;;;22.70;14.30;;;;;;;9.38;100.00;99500.11;223312;1264;139480;-83
2023/11/01 21:25:31;;;;;;;23.00;14.90;;;;;;;9.47;100.00;99497.29;223950;1264;138563;-84
2023/11/01 21:31:24;;;;;;;;;;;;;;;;;;;;;
2023/11/01 21:43:28;;;;;;;23.10;14.10;;;;;;;9.53;100.00;99480.11;223921;1264;138207;-83
2023/11/01 21:49:29;;;;;;;22.80;13.10;;;;;;;9.54;100.00;99479.48;223378;1264;139350;-84
2023/11/01 21:55:22;;;;;;;;;;;;;;;;;;;;;
2023/11/01 22:13:38;;;;;;;23.90;12.00;;;;;;;9.58;100.00;99459.77;223767;1264;138747;-83
2023/11/01 22:19:31;;;;;;;20.40;12.70;;;;;;;9.59;100.00;99465.27;223356;1264;139651;-83
2023/11/01 22:25:30;;;;;;;21.70;13.10;;;;;;;9.60;100.00;99463.14;223786;1265;138227;-83
2023/11/01 22:31:24;;;;;;;26.40;14.30;;;;;;;9.62;100.00;99455.31;223317;1264;140107;-83
2023/11/01 22:43:29;;;;;;;23.10;13.50;;;;;;;9.62;100.00;99441.02;223837;1268;138548;-82
2023/11/01 22:49:30;;;;;;;22.50;13.40;;;;;;;9.62;100.00;99434.11;223429;1264;139556;-82
2023/11/01 23:01:33;;;;;;;24.20;13.50;;;;;;;9.55;100.00;99424.08;223431;1265;139186;-82
2023/11/01 23:07:34;;;;;;;26.80;14.20;;;;;;;9.51;100.00;99415.99;223848;1264;138622;-83
2023/11/01 23:13:28;;;;;;;27.50;15.70;;;;;;;9.48;100.00;99411.61;223873;1264;138362;-83
2023/11/01 23:19:30;;;;;;;23.30;14.00;;;;;;;9.47;100.00;99410.90;223328;1264;139461;-82
2023/11/01 23:25:22;;;;;;;;;;;;;;;;;;;;;
2023/11/01 23:31:26;;;;;;;;;;;;;;;;;;;;;
2023/11/01 23:37:28;;;;;;;23.40;12.80;;;;;;;9.31;100.00;99385.88;223944;1264;138853;-82
2023/11/01 23:49:29;;;;;;;;;;;;;;;;;;;;;
2023/11/01 23:55:31;;;;;;;23.20;13.20;;;;;;;9.11;100.00;99357.50;223861;1265;138996;-82
